1865 Hurricane NOT_NAMED (1865267N20287)


IBTrACS version v04r00. Visit IBTrACS website for data access.
Please direct all questions to the IBTrACS Q and A forum

Storm track - Intensity - Wind Radii - Intensity Data - Source Data - All data

Summary Information

Storm ID 1865267N20287
Start Sep 23 12Z
Max Intensity 65 kt (Sep 28 18Z)
End Oct 5 06Z
ATCF IDs
Track status Best track data.

Storm track plot

Map of storm track

Intensity plots

Map of storm track

Radial wind information

No radial wind information for this storm


Position and Intensity Table

BASIN ISO_TIME_________ NATURE LAT LON MLC WIND
degrees north degrees east kts
NA 1865-09-23 12:00:00 TS 20.00 -73.00 30
NA 15:00:00 TS 20.11 -72.89 30
NA 18:00:00 TS 20.20 -72.80 30
NA 21:00:00 TS 20.26 -72.75 30
NA 1865-09-24 00:00:00 TS 20.30 -72.70 30
NA 03:00:00 TS 20.35 -72.61 30
NA 06:00:00 TS 20.40 -72.50 30
NA 09:00:00 TS 20.45 -72.41 30
NA 12:00:00 TS 20.50 -72.30 30
NA 15:00:00 TS 20.55 -72.16 30
NA 18:00:00 TS 20.60 -72.00 30
NA 21:00:00 TS 20.65 -71.80 30
NA 1865-09-25 00:00:00 TS 20.70 -71.60 30
NA 03:00:00 TS 20.75 -71.44 30
NA 06:00:00 TS 20.80 -71.30 30
NA 09:00:00 TS 20.83 -71.15 30
NA 12:00:00 TS 20.90 -71.00 30
NA 15:00:00 TS 21.04 -70.84 30
NA 18:00:00 TS 21.20 -70.70 30
NA 21:00:00 TS 21.35 -70.60 30
NA 1865-09-26 00:00:00 TS 21.50 -70.50 30
NA 03:00:00 TS 21.66 -70.35 30
NA 06:00:00 TS 21.80 -70.20 30
NA 09:00:00 TS 21.90 -70.08 30
NA 12:00:00 TS 22.00 -70.00 30
NA 15:00:00 TS 22.14 -69.94 32
NA 18:00:00 TS 22.30 -69.90 35
NA 21:00:00 TS 22.45 -69.85 35
NA 1865-09-27 00:00:00 TS 22.60 -69.80 35
NA 03:00:00 TS 22.75 -69.74 37
NA 06:00:00 TS 22.90 -69.70 40
NA 09:00:00 TS 23.03 -69.69 42
NA 12:00:00 TS 23.20 -69.70 45
NA 15:00:00 TS 23.48 -69.69 47
NA 18:00:00 TS 23.80 -69.70 50
NA 21:00:00 TS 24.10 -69.76 52
NA 1865-09-28 00:00:00 TS 24.40 -69.80 55
NA 03:00:00 TS 24.70 -69.77 57
NA 06:00:00 TS 25.00 -69.70 60
NA 09:00:00 TS 25.27 -69.68 60
NA 12:00:00 TS 25.60 -69.60 60
NA 15:00:00 TS 26.07 -69.39 62
NA 18:00:00 TS 26.60 -69.10 65
NA 21:00:00 TS 27.10 -68.81 65
NA 1865-09-29 00:00:00 TS 27.60 -68.50 65
NA 03:00:00 TS 28.11 -68.20 65
NA 06:00:00 TS 28.60 -67.90 65
NA 09:00:00 TS 29.06 -67.61 65
NA 12:00:00 TS 29.50 -67.30 65
NA 15:00:00 TS 29.95 -66.95 65
NA 18:00:00 TS 30.40 -66.60 65
NA 21:00:00 TS 30.85 -66.29 62
NA 1865-09-30 00:00:00 TS 31.30 -66.00 60
NA 03:00:00 TS 31.75 -65.70 57
NA 06:00:00 TS 32.20 -65.40 55
NA 09:00:00 TS 32.67 -65.09 55
NA 12:00:00 TS 33.10 -64.80 55
NA 15:00:00 TS 33.43 -64.54 52
NA 18:00:00 TS 33.70 -64.30 50
NA 21:00:00 TS 33.95 -64.05 50
NA 1865-10-01 00:00:00 TS 34.20 -63.80 50
NA 03:00:00 TS 34.50 -63.55 47
NA 06:00:00 TS 34.80 -63.30 45
NA 09:00:00 TS 35.05 -63.11 45
NA 12:00:00 TS 35.30 -62.80 45
NA 15:00:00 TS 35.59 -62.20 45
NA 18:00:00 TS 35.90 -61.50 45
NA 21:00:00 TS 36.20 -60.83 45
NA 1865-10-02 00:00:00 TS 36.50 -60.30 45
NA 03:00:00 TS 36.80 -60.08 45
NA 06:00:00 TS 37.10 -60.00 45
NA 09:00:00 TS 37.41 -59.89 45
NA 12:00:00 TS 37.70 -59.70 45
NA 15:00:00 TS 37.97 -59.30 45
NA 18:00:00 ET 38.20 -58.80 45
NA 21:00:00 ET 38.40 -58.30 45
NA 1865-10-03 00:00:00 ET 38.60 -57.80 45
NA 03:00:00 ET 38.85 -57.35 45
NA 06:00:00 ET 39.10 -56.90 45
NA 09:00:00 ET 39.31 -56.41 45
NA 12:00:00 ET 39.50 -55.90 45
NA 15:00:00 ET 39.70 -55.35 45
NA 18:00:00 ET 39.90 -54.80 45
NA 21:00:00 ET 40.10 -54.30 45
NA 1865-10-04 00:00:00 ET 40.30 -53.80 45
NA 03:00:00 ET 40.51 -53.25 45
NA 06:00:00 ET 40.70 -52.70 45
NA 09:00:00 ET 40.82 -52.22 45
NA 12:00:00 ET 41.00 -51.70 45
NA 15:00:00 ET 41.36 -51.04 45
NA 18:00:00 ET 41.80 -50.30 45
NA 21:00:00 ET 42.20 -49.56 45
NA 1865-10-05 00:00:00 ET 42.60 -48.80 45
NA 03:00:00 ET 43.00 -48.05 45
NA 06:00:00 ET 43.40 -47.30 45

Source Information

Agency Information
USA
TOKYO
CMA
HKO
NEWDELHI
REUNION
BOM
NADI
WELLINGTON
DS824
TD9636
TD9635
NEUMANN
MLC

All available IBTrACS Data

SEASON BASIN SUBBASIN ISO_TIME_________ NATURE LAT LON DIST2LAND LANDFALL IFLAG USA SSHS MLC LAT MLC LON MLC CLASS MLC WIND STORM SPEED STORM DIR
Year degrees north degrees east km km 1 degrees north degrees east kts kts degrees
1865 NA NA 1865-09-23 12:00:00 TS 20.00 -73.00 11 11 _____________O -1 20.00 -73.00 TD 30 3 44
1865 NA NA 15:00:00 TS 20.11 -72.89 22 22 _____________P -1 20.11 -72.89 TD 30 3 44
1865 NA NA 18:00:00 TS 20.20 -72.80 33 33 _____________O -1 20.20 -72.80 TD 30 2 42
1865 NA NA 21:00:00 TS 20.26 -72.75 44 44 _____________P -1 20.26 -72.75 TD 30 1 43
1865 NA NA 1865-09-24 00:00:00 TS 20.30 -72.70 44 44 _____________O -1 20.30 -72.70 TD 30 2 54
1865 NA NA 03:00:00 TS 20.35 -72.61 55 55 _____________P -1 20.35 -72.61 TD 30 2 61
1865 NA NA 06:00:00 TS 20.40 -72.50 56 56 _____________O -1 20.40 -72.50 TD 30 2 61
1865 NA NA 09:00:00 TS 20.45 -72.41 59 59 _____________P -1 20.45 -72.41 TD 30 2 61
1865 NA NA 12:00:00 TS 20.50 -72.30 74 74 _____________O -1 20.50 -72.30 TD 30 2 66
1865 NA NA 15:00:00 TS 20.55 -72.16 79 79 _____________P -1 20.55 -72.16 TD 30 3 70
1865 NA NA 18:00:00 TS 20.60 -72.00 91 89 _____________O -1 20.60 -72.00 TD 30 4 74
1865 NA NA 21:00:00 TS 20.65 -71.80 100 100 _____________P -1 20.65 -71.80 TD 30 4 75
1865 NA NA 1865-09-25 00:00:00 TS 20.70 -71.60 100 100 _____________O -1 20.70 -71.60 TD 30 3 73
1865 NA NA 03:00:00 TS 20.75 -71.44 100 100 _____________P -1 20.75 -71.44 TD 30 3 70
1865 NA NA 06:00:00 TS 20.80 -71.30 111 111 _____________O -1 20.80 -71.30 TD 30 3 73
1865 NA NA 09:00:00 TS 20.83 -71.15 111 111 _____________P -1 20.83 -71.15 TD 30 3 70
1865 NA NA 12:00:00 TS 20.90 -71.00 123 123 _____________O -1 20.90 -71.00 TD 30 4 55
1865 NA NA 15:00:00 TS 21.04 -70.84 134 134 _____________P -1 21.04 -70.84 TD 30 4 43
1865 NA NA 18:00:00 TS 21.20 -70.70 156 156 _____________O -1 21.20 -70.70 TD 30 4 36
1865 NA NA 21:00:00 TS 21.35 -70.60 167 167 _____________P -1 21.35 -70.60 TD 30 4 31
1865 NA NA 1865-09-26 00:00:00 TS 21.50 -70.50 190 190 _____________O -1 21.50 -70.50 TD 30 4 37
1865 NA NA 03:00:00 TS 21.66 -70.35 213 213 _____________P -1 21.66 -70.35 TD 30 4 43
1865 NA NA 06:00:00 TS 21.80 -70.20 227 227 _____________O -1 21.80 -70.20 TD 30 3 46
1865 NA NA 09:00:00 TS 21.90 -70.08 240 240 _____________P -1 21.90 -70.08 TD 30 3 43
1865 NA NA 12:00:00 TS 22.00 -70.00 253 253 _____________O -1 22.00 -70.00 TD 30 3 29
1865 NA NA 15:00:00 TS 22.14 -69.94 267 267 _____________P -1 22.14 -69.94 TD 32 3 16
1865 NA NA 18:00:00 TS 22.30 -69.90 288 288 _____________O -1 22.30 -69.90 TS 35 3 15
1865 NA NA 21:00:00 TS 22.45 -69.85 313 302 _____________P -1 22.45 -69.85 TS 35 3 16
1865 NA NA 1865-09-27 00:00:00 TS 22.60 -69.80 323 323 _____________O -1 22.60 -69.80 TS 35 3 17
1865 NA NA 03:00:00 TS 22.75 -69.74 348 348 _____________P -1 22.75 -69.74 TS 37 3 16
1865 NA NA 06:00:00 TS 22.90 -69.70 358 358 _____________O -1 22.90 -69.70 TS 40 3 7
1865 NA NA 09:00:00 TS 23.03 -69.69 369 369 _____________P -1 23.03 -69.69 TS 42 3 0
1865 NA NA 12:00:00 TS 23.20 -69.70 391 391 _____________O -1 23.20 -69.70 TS 45 5 0
1865 NA NA 15:00:00 TS 23.48 -69.69 424 424 _____________P -1 23.48 -69.69 TS 47 6 1
1865 NA NA 18:00:00 TS 23.80 -69.70 446 446 _____________O -1 23.80 -69.70 TS 50 6 354
1865 NA NA 21:00:00 TS 24.10 -69.76 461 461 _____________P -1 24.10 -69.76 TS 52 6 352
1865 NA NA 1865-09-28 00:00:00 TS 24.40 -69.80 485 485 _____________O -1 24.40 -69.80 TS 55 6 359
1865 NA NA 03:00:00 TS 24.70 -69.77 510 510 _____________P -1 24.70 -69.77 TS 57 6 8
1865 NA NA 06:00:00 TS 25.00 -69.70 542 542 _____________O -1 25.00 -69.70 TS 60 6 7
1865 NA NA 09:00:00 TS 25.27 -69.68 568 568 _____________P -1 25.27 -69.68 TS 60 6 8
1865 NA NA 12:00:00 TS 25.60 -69.60 601 601 _____________O -1 25.60 -69.60 TS 60 8 18
1865 NA NA 15:00:00 TS 26.07 -69.39 658 658 _____________P -1 26.07 -69.39 TS 62 11 24
1865 NA NA 18:00:00 TS 26.60 -69.10 721 721 _____________O -1 26.60 -69.10 HU 65 12 27
1865 NA NA 21:00:00 TS 27.10 -68.81 784 784 _____________P -1 27.10 -68.81 HU 65 11 28
1865 NA NA 1865-09-29 00:00:00 TS 27.60 -68.50 847 847 _____________O -1 27.60 -68.50 HU 65 11 28
1865 NA NA 03:00:00 TS 28.11 -68.20 910 910 _____________P -1 28.11 -68.20 HU 65 11 28
1865 NA NA 06:00:00 TS 28.60 -67.90 973 973 _____________O -1 28.60 -67.90 HU 65 11 29
1865 NA NA 09:00:00 TS 29.06 -67.61 1035 1035 _____________P -1 29.06 -67.61 HU 65 10 30
1865 NA NA 12:00:00 TS 29.50 -67.30 1037 1029 _____________O -1 29.50 -67.30 HU 65 11 33
1865 NA NA 15:00:00 TS 29.95 -66.95 1029 1021 _____________P -1 29.95 -66.95 HU 65 11 34
1865 NA NA 18:00:00 TS 30.40 -66.60 1022 1016 _____________O -1 30.40 -66.60 HU 65 11 32
1865 NA NA 21:00:00 TS 30.85 -66.29 1018 1009 _____________P -1 30.85 -66.29 HU 62 10 30
1865 NA NA 1865-09-30 00:00:00 TS 31.30 -66.00 1011 1005 _____________O -1 31.30 -66.00 TS 60 10 29
1865 NA NA 03:00:00 TS 31.75 -65.70 1012 1004 _____________P -1 31.75 -65.70 TS 57 10 29
1865 NA NA 06:00:00 TS 32.20 -65.40 1011 1006 _____________O -1 32.20 -65.40 TS 55 11 29
1865 NA NA 09:00:00 TS 32.67 -65.09 1013 1013 _____________P -1 32.67 -65.09 TS 55 10 29
1865 NA NA 12:00:00 TS 33.10 -64.80 1023 1019 _____________O -1 33.10 -64.80 TS 55 9 31
1865 NA NA 15:00:00 TS 33.43 -64.54 1039 1021 _____________P -1 33.43 -64.54 TS 52 7 35
1865 NA NA 18:00:00 TS 33.70 -64.30 1021 1010 _____________O -1 33.70 -64.30 TS 50 7 38
1865 NA NA 21:00:00 TS 33.95 -64.05 1014 995 _____________P -1 33.95 -64.05 TS 50 7 40
1865 NA NA 1865-10-01 00:00:00 TS 34.20 -63.80 995 976 _____________O -1 34.20 -63.80 TS 50 7 37
1865 NA NA 03:00:00 TS 34.50 -63.55 981 964 _____________P -1 34.50 -63.55 TS 47 7 34
1865 NA NA 06:00:00 TS 34.80 -63.30 964 951 _____________O -1 34.80 -63.30 TS 45 7 33
1865 NA NA 09:00:00 TS 35.05 -63.11 956 935 _____________P -1 35.05 -63.11 TS 45 6 39
1865 NA NA 12:00:00 TS 35.30 -62.80 937 915 _____________O -1 35.30 -62.80 TS 45 9 54
1865 NA NA 15:00:00 TS 35.59 -62.20 918 902 _____________P -1 35.59 -62.20 TS 45 12 60
1865 NA NA 18:00:00 TS 35.90 -61.50 905 894 _____________O -1 35.90 -61.50 TS 45 13 61
1865 NA NA 21:00:00 TS 36.20 -60.83 897 882 _____________P -1 36.20 -60.83 TS 45 11 58
1865 NA NA 1865-10-02 00:00:00 TS 36.50 -60.30 886 865 _____________O -1 36.50 -60.30 TS 45 8 45
1865 NA NA 03:00:00 TS 36.80 -60.08 865 840 _____________P -1 36.80 -60.08 TS 45 6 22
1865 NA NA 06:00:00 TS 37.10 -60.00 840 817 _____________O -1 37.10 -60.00 TS 45 6 14
1865 NA NA 09:00:00 TS 37.41 -59.89 817 798 _____________P -1 37.41 -59.89 TS 45 6 22
1865 NA NA 12:00:00 TS 37.70 -59.70 798 790 _____________O -1 37.70 -59.70 TS 45 7 40
1865 NA NA 15:00:00 TS 37.97 -59.30 792 792 _____________P -1 37.97 -59.30 TS 45 9 55
1865 NA NA 18:00:00 ET 38.20 -58.80 795 788 _____________O -1 38.20 -58.80 EX 45 9 61
1865 NA NA 21:00:00 ET 38.40 -58.30 790 779 _____________P -1 38.40 -58.30 EX 45 9 63
1865 NA NA 1865-10-03 00:00:00 ET 38.60 -57.80 782 770 _____________O -1 38.60 -57.80 EX 45 9 59
1865 NA NA 03:00:00 ET 38.85 -57.35 777 757 _____________P -1 38.85 -57.35 EX 45 9 55
1865 NA NA 06:00:00 ET 39.10 -56.90 760 752 _____________O -1 39.10 -56.90 EX 45 9 58
1865 NA NA 09:00:00 ET 39.31 -56.41 760 755 _____________P -1 39.31 -56.41 EX 45 9 63
1865 NA NA 12:00:00 ET 39.50 -55.90 763 763 _____________O -1 39.50 -55.90 EX 45 9 64
1865 NA NA 15:00:00 ET 39.70 -55.35 773 751 _____________P -1 39.70 -55.35 EX 45 9 65
1865 NA NA 18:00:00 ET 39.90 -54.80 751 724 _____________O -1 39.90 -54.80 EX 45 9 64
1865 NA NA 21:00:00 ET 40.10 -54.30 724 700 _____________P -1 40.10 -54.30 EX 45 9 62
1865 NA NA 1865-10-04 00:00:00 ET 40.30 -53.80 700 678 _____________O -1 40.30 -53.80 EX 45 9 63
1865 NA NA 03:00:00 ET 40.51 -53.25 678 656 _____________P -1 40.51 -53.25 EX 45 9 64
1865 NA NA 06:00:00 ET 40.70 -52.70 657 647 _____________O -1 40.70 -52.70 EX 45 8 68
1865 NA NA 09:00:00 ET 40.82 -52.22 649 632 _____________P -1 40.82 -52.22 EX 45 8 68
1865 NA NA 12:00:00 ET 41.00 -51.70 633 610 _____________O -1 41.00 -51.70 EX 45 10 59
1865 NA NA 15:00:00 ET 41.36 -51.04 603 577 _____________P -1 41.36 -51.04 EX 45 13 53
1865 NA NA 18:00:00 ET 41.80 -50.30 581 565 _____________O -1 41.80 -50.30 EX 45 14 53
1865 NA NA 21:00:00 ET 42.20 -49.56 565 558 _____________P -1 42.20 -49.56 EX 45 14 54
1865 NA NA 1865-10-05 00:00:00 ET 42.60 -48.80 563 559 _____________O -1 42.60 -48.80 EX 45 14 54
1865 NA NA 03:00:00 ET 43.00 -48.05 571 567 _____________P -1 43.00 -48.05 EX 45 14 54
1865 NA NA 06:00:00 ET 43.40 -47.30 582 _____________O -1 43.40 -47.30 EX 45 13 54